createdAt,value
2023-04-20T00:02:40.703Z,10.60
2023-04-20T00:05:10.367Z,11.13
2023-04-20T00:07:38.952Z,13.30
2023-04-20T00:10:11.013Z,14.35
2023-04-20T00:12:38.416Z,11.98
2023-04-20T00:15:06.822Z,17.00
2023-04-20T00:17:33.706Z,14.13
2023-04-20T00:20:03.054Z,17.00
2023-04-20T00:22:31.234Z,14.60
2023-04-20T00:24:58.992Z,15.55
2023-04-20T00:27:33.985Z,16.55
2023-04-20T00:30:06.478Z,12.77
2023-04-20T00:32:34.851Z,13.60
2023-04-20T00:35:06.401Z,13.02
2023-04-20T00:37:39.691Z,11.80
2023-04-20T00:40:19.358Z,11.77
2023-04-20T00:42:55.774Z,15.32
2023-04-20T00:45:30.241Z,14.15
2023-04-20T00:51:17.417Z,11.30
2023-04-20T00:53:58.608Z,13.23
2023-04-20T00:56:27.953Z,12.50
2023-04-20T00:59:06.324Z,11.45
2023-04-20T01:01:38.383Z,12.43
2023-04-20T01:04:13.618Z,11.27
2023-04-20T01:06:46.208Z,10.50
2023-04-20T01:09:28.383Z,11.15
2023-04-20T01:12:02.961Z,10.35
2023-04-20T01:14:33.022Z,11.93
2023-04-20T01:17:01.919Z,11.25
2023-04-20T01:19:31.688Z,11.13
2023-04-20T01:22:04.022Z,10.25
2023-04-20T01:24:36.314Z,10.80
2023-04-20T01:27:39.470Z,8.48
2023-04-20T01:30:12.553Z,7.45
2023-04-20T01:32:59.294Z,7.22
2023-04-20T01:35:34.464Z,5.80
2023-04-20T01:38:04.413Z,8.30
2023-04-20T01:40:37.903Z,6.97
2023-04-20T01:43:15.353Z,8.60
2023-04-20T01:48:36.724Z,6.75
2023-04-20T01:51:21.859Z,6.97
2023-04-20T01:54:16.246Z,6.10
2023-04-20T01:57:21.395Z,6.65
2023-04-20T01:59:59.817Z,6.05
2023-04-20T02:02:34.739Z,8.43
2023-04-20T02:05:07.019Z,8.00
2023-04-20T02:07:56.613Z,7.57
2023-04-20T02:10:40.427Z,6.70
2023-04-20T02:13:08.698Z,8.73
2023-04-20T02:15:45.566Z,8.00
2023-04-20T02:18:17.234Z,6.88
2023-04-20T02:20:52.171Z,8.27
2023-04-20T02:23:24.656Z,7.38
2023-04-20T02:26:03.043Z,8.88
2023-04-20T02:28:48.525Z,6.97
2023-04-20T02:31:26.169Z,6.63
2023-04-20T02:39:57.397Z,6.38
2023-04-20T02:45:23.385Z,7.85
2023-04-20T02:48:26.579Z,6.13
2023-04-20T02:51:11.387Z,6.20
2023-04-20T02:53:49.902Z,6.97
2023-04-20T02:56:24.368Z,6.07
2023-04-20T02:58:55.679Z,7.40
2023-04-20T03:01:24.319Z,9.55
2023-04-20T03:04:04.945Z,9.45
2023-04-20T03:06:32.943Z,8.23
2023-04-20T03:08:59.825Z,7.80
2023-04-20T03:11:26.898Z,7.15
2023-04-20T03:13:53.758Z,7.40
2023-04-20T03:16:22.640Z,6.95
2023-04-20T03:19:13.590Z,6.35
2023-04-20T03:21:42.761Z,5.93
2023-04-20T03:24:11.255Z,7.47
2023-04-20T03:26:48.356Z,6.38
2023-04-20T03:29:15.279Z,7.43
2023-04-20T03:31:42.292Z,7.83
2023-04-20T03:34:11.426Z,5.97
2023-04-20T03:36:38.242Z,6.75
2023-04-20T03:39:05.135Z,7.15
2023-04-20T03:41:32.382Z,7.25
2023-04-20T03:43:59.411Z,7.65
2023-04-20T03:46:30.755Z,9.32
2023-04-20T03:48:58.252Z,7.47
2023-04-20T03:51:25.232Z,8.75
2023-04-20T03:53:52.336Z,8.27
2023-04-20T03:56:20.258Z,7.57
2023-04-20T03:58:47.305Z,9.25
2023-04-20T04:01:18.410Z,7.60
2023-04-20T04:03:49.403Z,8.15
2023-04-20T04:06:17.136Z,8.40
2023-04-20T04:08:48.546Z,8.70
2023-04-20T04:11:15.566Z,9.27
2023-04-20T04:13:42.819Z,9.98
2023-04-20T04:16:16.576Z,12.38
2023-04-20T04:18:44.816Z,8.57
2023-04-20T04:23:45.174Z,8.43
2023-04-20T04:26:13.535Z,9.07
2023-04-20T04:29:02.188Z,12.23
2023-04-20T04:31:43.642Z,9.68
2023-04-20T04:34:15.678Z,8.65
2023-04-20T04:36:50.652Z,9.43
2023-04-20T04:39:18.864Z,11.73
2023-04-20T04:41:47.712Z,10.00
2023-04-20T04:44:20.865Z,12.63
2023-04-20T04:46:48.417Z,12.57
2023-04-20T04:49:16.637Z,13.90
2023-04-20T04:51:44.745Z,13.55
2023-04-20T04:54:14.931Z,13.18
2023-04-20T04:56:43.185Z,12.52
2023-04-20T04:59:10.955Z,11.38
2023-04-20T05:01:39.136Z,11.10
2023-04-20T05:09:50.185Z,10.45
2023-04-20T05:12:30.162Z,11.70
2023-04-20T05:15:03.391Z,10.38
2023-04-20T05:17:32.493Z,11.25
2023-04-20T05:20:03.538Z,11.50
2023-04-20T05:22:31.230Z,11.23
2023-04-20T05:24:58.641Z,7.53
2023-04-20T05:27:28.750Z,9.50
2023-04-20T05:29:59.895Z,10.27
2023-04-20T05:32:30.805Z,10.77
2023-04-20T05:34:58.785Z,12.20
2023-04-20T05:39:53.997Z,11.98
2023-04-20T05:42:23.422Z,11.20
2023-04-20T05:44:50.905Z,11.88
2023-04-20T05:47:17.914Z,10.77
2023-04-20T05:49:50.074Z,12.20
2023-04-20T05:52:17.435Z,11.18
2023-04-20T05:54:44.562Z,12.23
2023-04-20T05:57:15.610Z,11.50
2023-04-20T05:59:45.326Z,13.10
2023-04-20T06:02:12.371Z,12.02
2023-04-20T06:04:39.944Z,11.63
2023-04-20T06:07:08.474Z,12.20
2023-04-20T06:09:35.631Z,12.95
2023-04-20T06:28:23.946Z,7.82
2023-04-20T06:41:05.533Z,7.95
2023-04-20T06:41:25.317Z,8.15
2023-04-20T06:41:42.231Z,6.85
2023-04-20T06:48:20.240Z,7.13
2023-04-20T06:51:02.074Z,6.38
2023-04-20T06:53:32.610Z,6.60
2023-04-20T06:55:59.439Z,7.20
2023-04-20T06:58:30.653Z,7.80
2023-04-20T07:01:10.291Z,7.78
2023-04-20T07:03:38.439Z,6.78
2023-04-20T07:06:07.328Z,6.35
2023-04-20T07:08:34.239Z,5.82
2023-04-20T07:11:01.099Z,7.40
2023-04-20T07:13:33.467Z,10.50
2023-04-20T07:16:01.296Z,6.72
2023-04-20T07:18:28.264Z,8.32
2023-04-20T07:20:55.547Z,8.77
2023-04-20T07:23:22.370Z,8.38
2023-04-20T07:25:49.214Z,7.30
2023-04-20T07:28:19.149Z,6.13
2023-04-20T07:30:46.323Z,8.40
2023-04-20T07:33:16.151Z,8.32
2023-04-20T07:35:42.925Z,6.28
2023-04-20T07:38:10.179Z,6.85
2023-04-20T07:40:43.946Z,6.45
2023-04-20T07:43:11.339Z,7.03
2023-04-20T07:45:42.178Z,7.10
2023-04-20T07:48:13.937Z,6.30
2023-04-20T07:50:40.907Z,8.27
2023-04-20T07:53:17.328Z,7.35
2023-04-20T07:55:48.573Z,7.30
2023-04-20T07:58:17.753Z,6.38
2023-04-20T08:00:46.420Z,6.30
2023-04-20T08:03:14.541Z,5.22
2023-04-20T08:05:41.448Z,7.28
2023-04-20T08:08:10.686Z,6.30
2023-04-20T08:10:40.985Z,9.05
2023-04-20T08:13:08.152Z,6.13
2023-04-20T08:15:36.053Z,7.57
2023-04-20T08:18:06.081Z,7.75
2023-04-20T08:23:00.745Z,5.97
2023-04-20T08:25:27.885Z,6.18
2023-04-20T08:27:54.751Z,7.80
2023-04-20T08:30:25.480Z,6.20
2023-04-20T08:32:52.568Z,6.38
2023-04-20T08:35:28.973Z,6.40
2023-04-20T08:38:06.690Z,6.05
2023-04-20T08:40:36.699Z,6.80
2023-04-20T08:43:13.144Z,7.47
2023-04-20T08:45:58.846Z,6.60
2023-04-20T08:48:40.777Z,5.78
2023-04-20T08:51:07.856Z,6.25
2023-04-20T08:53:35.611Z,7.22
2023-04-20T08:56:10.793Z,8.70
2023-04-20T08:58:42.901Z,7.88
2023-04-20T09:01:17.731Z,5.82
2023-04-20T09:03:47.806Z,6.03
2023-04-20T09:06:19.350Z,7.35
2023-04-20T09:08:50.830Z,5.82
2023-04-20T09:11:22.936Z,7.22
2023-04-20T09:14:00.550Z,6.78
2023-04-20T09:16:27.731Z,8.00
2023-04-20T09:19:01.358Z,10.10
2023-04-20T09:21:28.924Z,7.30
2023-04-20T09:23:57.403Z,5.63
2023-04-20T09:26:30.394Z,6.93
2023-04-20T09:28:57.370Z,7.18
2023-04-20T09:31:24.631Z,6.63
2023-04-20T09:33:57.899Z,6.55
2023-04-20T09:36:37.634Z,5.90
2023-04-20T09:39:25.225Z,7.43
2023-04-20T09:41:52.916Z,7.13
2023-04-20T09:44:20.625Z,6.97
2023-04-20T09:46:47.985Z,7.03
2023-04-20T09:49:15.725Z,7.00
2023-04-20T09:51:46.837Z,18.77
2023-04-20T09:54:16.326Z,6.00
2023-04-20T09:56:43.619Z,8.80
2023-04-20T09:59:12.375Z,6.90
2023-04-20T10:01:39.248Z,10.52
2023-04-20T10:04:17.173Z,8.90
2023-04-20T10:09:41.006Z,8.77
2023-04-20T10:12:09.791Z,7.90
2023-04-20T10:15:00.654Z,7.28
2023-04-20T10:17:35.944Z,12.00
2023-04-20T10:20:04.418Z,7.22
2023-04-20T10:22:38.118Z,4.90
2023-04-20T10:25:19.913Z,9.00
2023-04-20T10:28:16.687Z,6.88
2023-04-20T10:30:53.937Z,6.90
2023-04-20T10:33:20.924Z,5.60
2023-04-20T10:35:59.163Z,7.78
2023-04-20T10:38:30.618Z,6.15
2023-04-20T10:40:58.414Z,6.97
2023-04-20T10:45:58.445Z,7.07
2023-04-20T10:48:28.305Z,7.43
2023-04-20T10:51:38.571Z,10.70
2023-04-20T10:54:09.378Z,12.27
2023-04-20T10:57:03.955Z,10.45
2023-04-20T10:59:53.041Z,8.00
2023-04-20T11:02:40.564Z,8.68
2023-04-20T11:08:05.274Z,9.35
2023-04-20T11:10:40.358Z,10.85
2023-04-20T11:13:41.769Z,7.90
2023-04-20T11:16:51.660Z,6.78
2023-04-20T11:19:47.091Z,6.15
2023-04-20T11:22:25.666Z,7.90
2023-04-20T11:25:11.735Z,8.68
2023-04-20T11:27:39.656Z,8.60
2023-04-20T11:32:40.006Z,21.65
2023-04-20T11:35:09.555Z,12.70
2023-04-20T11:37:51.737Z,7.13
2023-04-20T11:40:21.408Z,18.30
2023-04-20T11:42:48.160Z,9.52
2023-04-20T11:45:15.943Z,6.70
2023-04-20T11:50:10.527Z,7.93
2023-04-20T11:52:40.247Z,9.15
2023-04-20T11:55:07.563Z,6.78
2023-04-20T11:57:34.752Z,8.23
2023-04-20T12:00:01.680Z,7.18
2023-04-20T12:02:28.664Z,6.40
2023-04-20T12:05:01.403Z,6.18
2023-04-20T12:07:28.553Z,7.88
2023-04-20T12:09:57.703Z,6.38
2023-04-20T12:12:26.723Z,7.22
2023-04-20T12:14:56.503Z,5.60
2023-04-20T12:20:13.144Z,6.30
2023-04-20T12:22:48.072Z,6.28
2023-04-20T12:25:18.515Z,4.10
2023-04-20T12:27:47.561Z,6.25
2023-04-20T12:30:17.001Z,4.63
2023-04-20T12:32:47.321Z,6.45
2023-04-20T12:35:14.793Z,4.68
2023-04-20T12:37:42.408Z,6.32
2023-04-20T12:40:10.560Z,5.75
2023-04-20T12:42:37.505Z,6.10
2023-04-20T12:45:12.010Z,6.23
2023-04-20T12:47:39.031Z,6.50
2023-04-20T12:50:12.298Z,8.30
2023-04-20T12:52:40.281Z,7.15
2023-04-20T12:55:08.199Z,8.50
2023-04-20T13:00:06.289Z,7.18
2023-04-20T13:02:36.511Z,6.80
2023-04-20T13:05:04.402Z,8.38
2023-04-20T13:12:29.161Z,7.70
2023-04-20T13:14:55.910Z,8.43
2023-04-20T13:17:23.270Z,8.20
2023-04-20T13:19:50.718Z,8.73
2023-04-20T13:22:18.969Z,6.32
2023-04-20T13:24:46.467Z,7.75
2023-04-20T13:27:14.639Z,9.35
2023-04-20T13:29:42.009Z,6.97
2023-04-20T13:32:08.846Z,7.07
2023-04-20T13:34:47.241Z,5.88
2023-04-20T13:37:24.072Z,5.50
2023-04-20T13:39:54.669Z,5.97
2023-04-20T13:42:50.170Z,7.18
2023-04-20T13:45:17.486Z,8.90
2023-04-20T13:47:44.352Z,8.48
2023-04-20T13:55:48.570Z,8.43
2023-04-20T13:58:18.675Z,7.88
2023-04-20T14:01:00.323Z,4.38
2023-04-20T14:03:27.443Z,3.85
2023-04-20T14:06:06.646Z,4.38
2023-04-20T14:08:34.076Z,4.97
2023-04-20T14:11:01.173Z,6.38
2023-04-20T14:13:42.014Z,4.20
2023-04-20T14:16:33.107Z,4.10
2023-04-20T14:19:00.464Z,5.30
2023-04-20T14:21:28.019Z,5.30
2023-04-20T14:23:56.107Z,4.25
2023-04-20T14:26:27.951Z,4.07
2023-04-20T14:28:55.434Z,4.10
2023-04-20T14:31:22.263Z,3.75
2023-04-20T14:33:49.270Z,5.07
2023-04-20T14:36:16.180Z,3.75
2023-04-20T14:38:42.907Z,5.47
2023-04-20T14:41:10.575Z,3.28
2023-04-20T14:43:41.400Z,4.85
2023-04-20T14:46:10.941Z,6.47
2023-04-20T14:48:46.426Z,5.55
2023-04-20T14:51:14.338Z,5.10
2023-04-20T14:53:41.309Z,5.13
2023-04-20T14:56:08.263Z,7.35
2023-04-20T14:58:36.231Z,8.50
2023-04-20T15:01:03.742Z,5.88
2023-04-20T15:03:34.040Z,5.63
2023-04-20T15:06:02.483Z,5.18
2023-04-20T15:08:29.359Z,4.30
2023-04-20T15:10:56.873Z,4.87
2023-04-20T15:13:24.890Z,3.70
2023-04-20T15:15:54.832Z,6.60
2023-04-20T15:18:21.928Z,4.55
2023-04-20T15:20:51.809Z,4.85
2023-04-20T15:23:19.285Z,4.10
2023-04-20T15:25:46.682Z,4.10
2023-04-20T15:28:16.945Z,3.85
2023-04-20T15:30:46.643Z,4.72
2023-04-20T15:33:39.011Z,5.55
2023-04-20T15:36:13.128Z,5.18
2023-04-20T15:38:40.403Z,7.32
2023-04-20T15:41:10.815Z,4.75
2023-04-20T15:43:39.464Z,3.88
2023-04-20T15:50:16.186Z,3.80
2023-04-20T15:52:42.789Z,6.15
2023-04-20T15:55:53.792Z,3.50
2023-04-20T15:58:21.131Z,5.32
2023-04-20T16:01:02.720Z,5.55
2023-04-20T16:10:33.091Z,5.55
2023-04-20T16:13:00.150Z,5.95
2023-04-20T16:15:55.117Z,4.55
2023-04-20T16:19:22.938Z,4.90
2023-04-20T16:22:00.300Z,8.57
2023-04-20T16:26:59.395Z,11.70
2023-04-20T16:29:28.940Z,9.23
2023-04-20T16:31:55.973Z,7.60
2023-04-20T16:37:37.212Z,15.10
2023-04-20T16:50:51.219Z,12.70
2023-04-20T16:56:24.826Z,21.20
2023-04-20T16:59:01.107Z,10.55
2023-04-20T17:01:28.582Z,10.27
2023-04-20T17:04:20.080Z,9.18
2023-04-20T17:06:47.289Z,6.95
2023-04-20T17:09:47.514Z,5.23
2023-04-20T17:17:48.352Z,6.63
2023-04-20T17:20:16.130Z,7.13
2023-04-20T17:22:57.333Z,5.95
2023-04-20T17:25:27.548Z,5.13
2023-04-20T17:27:54.490Z,10.43
2023-04-20T17:30:31.275Z,12.93
2023-04-20T17:33:08.186Z,12.63
2023-04-20T17:35:39.838Z,8.52
2023-04-20T17:38:46.629Z,11.10
2023-04-20T17:41:20.241Z,19.02
2023-04-20T17:44:33.109Z,16.13
2023-04-20T17:47:55.507Z,15.20
2023-04-20T17:54:23.529Z,5.32
2023-04-20T17:56:53.652Z,6.95
2023-04-20T17:59:31.307Z,6.63
2023-04-20T18:02:33.395Z,8.27
2023-04-20T18:05:01.085Z,6.38
2023-04-20T18:07:28.742Z,9.15
2023-04-20T18:13:02.708Z,8.05
2023-04-20T18:15:41.999Z,6.97
2023-04-20T18:18:16.886Z,8.10
2023-04-20T18:20:55.003Z,9.35
2023-04-20T18:23:53.738Z,8.30
2023-04-20T18:29:20.413Z,10.43
2023-04-20T18:32:01.646Z,9.82
2023-04-20T18:38:39.089Z,7.90
2023-04-20T18:44:23.612Z,8.45
2023-04-20T18:53:48.806Z,8.50
2023-04-20T18:56:15.960Z,8.57
2023-04-20T18:58:42.879Z,6.20
2023-04-20T19:01:28.174Z,9.20
2023-04-20T19:03:55.535Z,13.38
2023-04-20T19:06:22.871Z,16.67
2023-04-20T19:08:52.370Z,14.63
2023-04-20T19:11:19.092Z,12.43
2023-04-20T19:13:45.899Z,8.10
2023-04-20T19:16:13.402Z,9.00
2023-04-20T19:18:40.298Z,9.30
2023-04-20T19:21:07.483Z,8.57
2023-04-20T19:23:35.899Z,8.88
2023-04-20T19:26:02.915Z,9.85
2023-04-20T19:28:30.104Z,8.88
2023-04-20T19:30:58.010Z,9.70
2023-04-20T19:33:25.004Z,11.25
2023-04-20T19:35:51.870Z,8.47
2023-04-20T19:38:24.482Z,8.68
2023-04-20T19:40:52.351Z,10.50
2023-04-20T19:43:19.048Z,10.10
2023-04-20T19:45:46.108Z,9.15
2023-04-20T19:48:12.940Z,10.65
2023-04-20T19:50:39.703Z,9.50
2023-04-20T19:53:07.069Z,9.98
2023-04-20T19:55:33.861Z,8.60
2023-04-20T19:58:01.061Z,9.68
2023-04-20T20:00:27.889Z,10.38
2023-04-20T20:02:55.008Z,11.05
2023-04-20T20:05:23.045Z,9.43
2023-04-20T20:10:16.279Z,9.10
2023-04-20T20:12:43.045Z,13.10
2023-04-20T20:15:09.908Z,10.18
2023-04-20T20:17:36.879Z,7.07
2023-04-20T20:20:06.242Z,8.77
2023-04-20T20:22:33.817Z,9.25
2023-04-20T20:25:01.458Z,8.82
2023-04-20T20:27:28.762Z,8.93
2023-04-20T20:29:55.888Z,8.52
2023-04-20T20:32:22.873Z,8.05
2023-04-20T20:34:49.708Z,8.23
2023-04-20T20:37:16.677Z,10.75
2023-04-20T20:39:43.855Z,8.07
2023-04-20T20:42:12.379Z,7.43
2023-04-20T20:44:40.234Z,8.23
2023-04-20T20:47:06.973Z,8.95
2023-04-20T20:49:34.035Z,8.43
2023-04-20T20:52:02.388Z,7.83
2023-04-20T20:54:29.117Z,9.65
2023-04-20T20:56:56.317Z,8.82
2023-04-20T20:59:23.223Z,8.63
2023-04-20T21:01:49.987Z,8.98
2023-04-20T21:04:17.095Z,8.68
2023-04-20T21:06:43.925Z,8.10
2023-04-20T21:09:10.725Z,8.32
2023-04-20T21:11:37.364Z,7.97
2023-04-20T21:14:04.153Z,9.55
2023-04-20T21:16:30.880Z,8.18
2023-04-20T21:18:57.660Z,7.80
2023-04-20T21:21:24.342Z,7.35
2023-04-20T21:23:51.259Z,9.15
2023-04-20T21:26:18.014Z,9.35
2023-04-20T21:28:44.808Z,7.82
2023-04-20T21:31:11.598Z,8.73
2023-04-20T21:33:38.502Z,8.05
2023-04-20T21:36:05.608Z,8.90
2023-04-20T21:38:32.273Z,7.90
2023-04-20T21:40:58.982Z,8.25
2023-04-20T21:43:25.791Z,8.65
2023-04-20T21:45:52.768Z,7.70
2023-04-20T21:48:19.596Z,7.77
2023-04-20T21:50:46.441Z,8.20
2023-04-20T21:53:13.226Z,7.85
2023-04-20T21:55:40.977Z,8.25
2023-04-20T21:58:07.666Z,9.65
2023-04-20T22:00:34.407Z,8.38
2023-04-20T22:03:01.373Z,5.40
2023-04-20T22:05:29.473Z,8.77
2023-04-20T22:07:59.573Z,6.68
2023-04-20T22:10:26.987Z,6.93
2023-04-20T22:12:53.669Z,7.15
2023-04-20T22:15:22.381Z,7.97
2023-04-20T22:17:49.451Z,7.18
2023-04-20T22:20:17.114Z,7.73
2023-04-20T22:22:43.818Z,7.88
2023-04-20T22:25:10.681Z,8.52
2023-04-20T22:27:37.930Z,8.45
2023-04-20T22:30:06.249Z,9.63
2023-04-20T22:32:33.101Z,7.15
2023-04-20T22:34:59.845Z,7.95
2023-04-20T22:37:26.589Z,6.28
2023-04-20T22:39:53.308Z,7.43
2023-04-20T22:42:20.018Z,7.55
2023-04-20T22:44:46.718Z,7.03
2023-04-20T22:47:13.874Z,7.10
2023-04-20T22:49:41.893Z,6.95
2023-04-20T22:54:37.317Z,7.47
2023-04-20T22:57:04.342Z,7.57
2023-04-20T22:59:31.292Z,7.93
2023-04-20T23:01:58.092Z,7.60
2023-04-20T23:04:24.908Z,9.20
2023-04-20T23:06:53.001Z,6.13
2023-04-20T23:09:21.105Z,6.38
2023-04-20T23:11:48.381Z,6.15
2023-04-20T23:14:15.304Z,7.30
2023-04-20T23:16:42.205Z,7.25
2023-04-20T23:19:09.026Z,5.57
2023-04-20T23:21:36.031Z,6.75
2023-04-20T23:24:05.416Z,6.57
2023-04-20T23:26:32.093Z,6.65
2023-04-20T23:28:59.130Z,7.65
2023-04-20T23:31:26.728Z,7.57
2023-04-20T23:33:53.414Z,5.93
2023-04-20T23:36:20.277Z,5.32
2023-04-20T23:38:47.049Z,6.00
2023-04-20T23:41:15.243Z,6.80
2023-04-20T23:43:42.660Z,6.90
2023-04-20T23:46:09.468Z,6.63
2023-04-20T23:48:36.358Z,4.60
2023-04-20T23:51:03.352Z,6.78
2023-04-20T23:53:30.181Z,6.80
2023-04-20T23:55:57.205Z,6.18
2023-04-20T23:58:27.961Z,6.37
